RYR7WV LIME-EDDB
Flight info
| Callsign | RYR7WV |
|---|---|
| Flight time | 1h 26m |
| Altitude | 37000 |
| Route | DILEB DCT ABREG DCT LOKTA/N0463F330 DCT TIKNI T279 TAMEB T278 KLF KLF1L |
| Aircraft | B738/M-SDE2E3FGHIRWXY/LB1 |
Departure
| Time | 2026-05-01 07:30 |
|---|---|
| Airport | Il Caravaggio International Airport (LIME) |
Arrival
| Time | 2026-05-01 08:57 |
|---|---|
| Airport | Berlin Brandenburg Airport (EDDB) |
| Time | Latitude | Longitude | Altitude | Speed | Heading |
|---|---|---|---|---|---|
| 2026-05-01 07:23 | 45.66829 | 9.69538 | 786 ft | 0 kts | 105° |
| 2026-05-01 07:24 | 45.66829 | 9.69539 | 786 ft | 1 kts | 105° |
| 2026-05-01 07:24 | 45.66823 | 9.69568 | 786 ft | 7 kts | 105° |
| 2026-05-01 07:24 | 45.66806 | 9.69665 | 786 ft | 14 kts | 104° |
| 2026-05-01 07:24 | 45.66775 | 9.69826 | 786 ft | 20 kts | 105° |
| 2026-05-01 07:25 | 45.66738 | 9.70021 | 786 ft | 20 kts | 105° |
| 2026-05-01 07:25 | 45.66703 | 9.70212 | 786 ft | 20 kts | 104° |
| 2026-05-01 07:25 | 45.66668 | 9.70398 | 786 ft | 19 kts | 104° |
| 2026-05-01 07:25 | 45.66635 | 9.70577 | 786 ft | 18 kts | 105° |
| 2026-05-01 07:26 | 45.66604 | 9.70749 | 786 ft | 18 kts | 105° |
| 2026-05-01 07:26 | 45.66572 | 9.70918 | 786 ft | 17 kts | 105° |
| 2026-05-01 07:26 | 45.66542 | 9.71079 | 786 ft | 16 kts | 104° |
| 2026-05-01 07:26 | 45.66502 | 9.71228 | 786 ft | 16 kts | 111° |
| 2026-05-01 07:27 | 45.66472 | 9.71376 | 786 ft | 15 kts | 105° |
| 2026-05-01 07:27 | 45.66445 | 9.71520 | 786 ft | 15 kts | 104° |
| 2026-05-01 07:27 | 45.66445 | 9.71660 | 786 ft | 14 kts | 77° |
| 2026-05-01 07:27 | 45.66462 | 9.71793 | 786 ft | 13 kts | 89° |
| 2026-05-01 07:28 | 45.66456 | 9.71923 | 786 ft | 13 kts | 95° |
| 2026-05-01 07:28 | 45.66436 | 9.72058 | 786 ft | 17 kts | 104° |
| 2026-05-01 07:28 | 45.66405 | 9.72226 | 786 ft | 17 kts | 105° |
| 2026-05-01 07:28 | 45.66376 | 9.72390 | 786 ft | 17 kts | 104° |
| 2026-05-01 07:29 | 45.66415 | 9.72464 | 786 ft | 7 kts | 353° |
| 2026-05-01 07:29 | 45.66456 | 9.72430 | 786 ft | 7 kts | 313° |
| 2026-05-01 07:29 | 45.66471 | 9.72378 | 786 ft | 0 kts | 284° |
| 2026-05-01 07:29 | 45.66473 | 9.72367 | 786 ft | 11 kts | 284° |
| 2026-05-01 07:30 | 45.66556 | 9.71921 | 786 ft | 82 kts | 285° |
| 2026-05-01 07:30 | 45.66760 | 9.70824 | 786 ft | 144 kts | 285° |
| 2026-05-01 07:30 | 45.67057 | 9.69258 | 985 ft | 177 kts | 284° |
| 2026-05-01 07:30 | 45.67362 | 9.67567 | 1783 ft | 177 kts | 283° |
| 2026-05-01 07:31 | 45.67649 | 9.65815 | 2524 ft | 181 kts | 275° |
| 2026-05-01 07:31 | 45.65093 | 9.62093 | 3642 ft | 221 kts | 172° |
| 2026-05-01 07:32 | 45.62110 | 9.63586 | 4747 ft | 234 kts | 158° |
| 2026-05-01 07:32 | 45.61095 | 9.64149 | 5185 ft | 237 kts | 158° |
| 2026-05-01 07:33 | 45.57965 | 9.65889 | 6493 ft | 243 kts | 159° |
| 2026-05-01 07:33 | 45.55743 | 9.66186 | 7118 ft | 248 kts | 189° |
| 2026-05-01 07:33 | 45.52846 | 9.65505 | 8150 ft | 254 kts | 188° |
| 2026-05-01 07:34 | 45.51115 | 9.65121 | 8778 ft | 256 kts | 187° |
| 2026-05-01 07:34 | 45.47548 | 9.64338 | 10069 ft | 262 kts | 188° |
| 2026-05-01 07:34 | 45.45845 | 9.63409 | 10578 ft | 269 kts | 220° |
| 2026-05-01 07:35 | 45.44778 | 9.61247 | 11104 ft | 271 kts | 255° |
| 2026-05-01 07:35 | 45.44679 | 9.58599 | 11623 ft | 269 kts | 288° |
| 2026-05-01 07:35 | 45.45549 | 9.56311 | 12184 ft | 262 kts | 320° |
| 2026-05-01 07:35 | 45.47060 | 9.55039 | 12758 ft | 254 kts | 350° |
| 2026-05-01 07:36 | 45.48788 | 9.55001 | 13415 ft | 249 kts | 16° |
| 2026-05-01 07:36 | 45.50401 | 9.55874 | 14088 ft | 248 kts | 27° |
| 2026-05-01 07:36 | 45.51947 | 9.56982 | 14684 ft | 249 kts | 28° |
| 2026-05-01 07:36 | 45.53491 | 9.58133 | 15275 ft | 252 kts | 28° |
| 2026-05-01 07:37 | 45.56619 | 9.60443 | 16507 ft | 255 kts | 28° |
| 2026-05-01 07:37 | 45.58210 | 9.61604 | 17079 ft | 258 kts | 28° |
| 2026-05-01 07:37 | 45.59818 | 9.62770 | 17874 ft | 260 kts | 28° |
| 2026-05-01 07:38 | 45.61436 | 9.63937 | 18506 ft | 261 kts | 28° |
| 2026-05-01 07:38 | 45.63070 | 9.65115 | 19061 ft | 263 kts | 28° |
| 2026-05-01 07:38 | 45.66343 | 9.67466 | 20123 ft | 266 kts | 26° |
| 2026-05-01 07:39 | 45.68158 | 9.68123 | 20543 ft | 278 kts | 7° |
| 2026-05-01 07:39 | 45.70159 | 9.68122 | 20668 ft | 297 kts | 2° |
| 2026-05-01 07:39 | 45.74525 | 9.67791 | 20916 ft | 331 kts | 0° |
| 2026-05-01 07:40 | 45.76877 | 9.67602 | 21025 ft | 346 kts | 0° |
| 2026-05-01 07:40 | 45.79340 | 9.67417 | 21149 ft | 362 kts | 0° |
| 2026-05-01 07:40 | 45.81911 | 9.67238 | 21256 ft | 377 kts | 0° |
| 2026-05-01 07:40 | 45.84579 | 9.67058 | 21319 ft | 390 kts | 0° |
| 2026-05-01 07:41 | 45.87328 | 9.66874 | 21416 ft | 402 kts | 0° |
| 2026-05-01 07:41 | 45.90166 | 9.66686 | 21488 ft | 413 kts | 0° |
| 2026-05-01 07:41 | 45.96040 | 9.66299 | 21876 ft | 429 kts | 0° |
| 2026-05-01 07:42 | 45.99023 | 9.65934 | 22213 ft | 434 kts | 353° |
| 2026-05-01 07:42 | 46.01952 | 9.65010 | 22668 ft | 437 kts | 349° |
| 2026-05-01 07:42 | 46.04903 | 9.63930 | 23118 ft | 438 kts | 349° |
| 2026-05-01 07:42 | 46.07864 | 9.62848 | 23457 ft | 439 kts | 349° |
| 2026-05-01 07:43 | 46.10839 | 9.61795 | 23749 ft | 441 kts | 350° |
| 2026-05-01 07:43 | 46.13839 | 9.60765 | 24059 ft | 444 kts | 350° |
| 2026-05-01 07:43 | 46.19887 | 9.58728 | 24556 ft | 449 kts | 349° |
| 2026-05-01 07:44 | 46.26007 | 9.56679 | 25132 ft | 453 kts | 350° |
| 2026-05-01 07:44 | 46.32183 | 9.54708 | 25676 ft | 453 kts | 353° |
| 2026-05-01 07:45 | 46.35304 | 9.54008 | 25914 ft | 455 kts | 355° |
| 2026-05-01 07:45 | 46.38449 | 9.53424 | 26146 ft | 456 kts | 355° |
| 2026-05-01 07:45 | 46.41593 | 9.52881 | 26507 ft | 454 kts | 356° |
| 2026-05-01 07:45 | 46.44718 | 9.52337 | 27013 ft | 451 kts | 356° |
| 2026-05-01 07:46 | 46.47823 | 9.51782 | 27475 ft | 448 kts | 355° |
| 2026-05-01 07:46 | 46.50913 | 9.51213 | 27847 ft | 447 kts | 355° |
| 2026-05-01 07:46 | 46.57085 | 9.50041 | 28610 ft | 446 kts | 355° |
| 2026-05-01 07:47 | 46.60111 | 9.49457 | 29062 ft | 443 kts | 355° |
| 2026-05-01 07:47 | 46.63205 | 9.48858 | 29501 ft | 441 kts | 355° |
| 2026-05-01 07:47 | 46.66242 | 9.48269 | 29829 ft | 441 kts | 355° |
| 2026-05-01 07:47 | 46.69288 | 9.47679 | 30152 ft | 442 kts | 355° |
| 2026-05-01 07:48 | 46.75281 | 9.46513 | 31173 ft | 431 kts | 355° |
| 2026-05-01 07:48 | 46.78257 | 9.45934 | 31351 ft | 434 kts | 355° |
| 2026-05-01 07:48 | 46.81265 | 9.45351 | 31446 ft | 438 kts | 355° |
| 2026-05-01 07:49 | 46.84291 | 9.44764 | 31684 ft | 438 kts | 355° |
| 2026-05-01 07:49 | 46.90289 | 9.43593 | 32478 ft | 432 kts | 355° |
| 2026-05-01 07:49 | 46.93271 | 9.43009 | 32674 ft | 433 kts | 355° |
| 2026-05-01 07:50 | 46.96268 | 9.42424 | 32750 ft | 438 kts | 355° |
| 2026-05-01 07:50 | 47.02300 | 9.41243 | 33447 ft | 434 kts | 355° |
| 2026-05-01 07:50 | 47.05278 | 9.40657 | 33855 ft | 431 kts | 355° |
| 2026-05-01 07:51 | 47.08249 | 9.40073 | 34118 ft | 431 kts | 355° |
| 2026-05-01 07:51 | 47.11233 | 9.39487 | 34327 ft | 433 kts | 355° |
| 2026-05-01 07:51 | 47.14209 | 9.38901 | 34598 ft | 430 kts | 355° |
| 2026-05-01 07:52 | 47.20145 | 9.37729 | 34999 ft | 431 kts | 355° |
| 2026-05-01 07:52 | 47.23119 | 9.37142 | 35134 ft | 432 kts | 355° |
| 2026-05-01 07:52 | 47.26105 | 9.36551 | 35351 ft | 432 kts | 355° |
| 2026-05-01 07:53 | 47.26762 | 9.36421 | 35401 ft | 431 kts | 355° |
| 2026-05-01 07:53 | 47.28915 | 9.35995 | 35559 ft | 431 kts | 355° |
| 2026-05-01 07:53 | 47.31886 | 9.35406 | 35756 ft | 431 kts | 354° |
| 2026-05-01 07:54 | 47.37790 | 9.34233 | 36123 ft | 431 kts | 354° |
| 2026-05-01 07:55 | 47.46740 | 9.32451 | 36631 ft | 432 kts | 354° |
| 2026-05-01 07:55 | 47.52702 | 9.31260 | 36998 ft | 432 kts | 354° |
| 2026-05-01 07:56 | 47.61669 | 9.29463 | 37337 ft | 435 kts | 354° |
| 2026-05-01 07:57 | 47.70605 | 9.27666 | 37320 ft | 432 kts | 354° |
| 2026-05-01 07:58 | 47.82452 | 9.25275 | 37341 ft | 429 kts | 354° |
| 2026-05-01 07:59 | 47.94281 | 9.22877 | 37344 ft | 429 kts | 354° |
| 2026-05-01 08:00 | 48.12098 | 9.19243 | 37328 ft | 434 kts | 354° |
| 2026-05-01 08:01 | 48.21077 | 9.19417 | 37325 ft | 432 kts | 12° |
| 2026-05-01 08:01 | 48.24027 | 9.20305 | 37319 ft | 433 kts | 12° |
| 2026-05-01 08:02 | 48.32898 | 9.23039 | 37313 ft | 434 kts | 12° |
| 2026-05-01 08:03 | 48.41789 | 9.25705 | 37318 ft | 434 kts | 12° |
| 2026-05-01 08:03 | 48.50680 | 9.28348 | 37313 ft | 433 kts | 12° |
| 2026-05-01 08:04 | 48.62499 | 9.31873 | 37345 ft | 432 kts | 12° |
| 2026-05-01 08:05 | 48.71306 | 9.34513 | 37346 ft | 431 kts | 12° |
| 2026-05-01 08:06 | 48.80118 | 9.37164 | 37345 ft | 430 kts | 12° |
| 2026-05-01 08:07 | 48.91860 | 9.40711 | 37321 ft | 430 kts | 12° |
| 2026-05-01 08:08 | 49.00650 | 9.43377 | 37343 ft | 429 kts | 12° |
| 2026-05-01 08:09 | 49.12373 | 9.46948 | 37359 ft | 429 kts | 12° |
| 2026-05-01 08:09 | 49.18239 | 9.48741 | 37358 ft | 430 kts | 12° |
| 2026-05-01 08:10 | 49.29946 | 9.52333 | 37353 ft | 430 kts | 12° |
| 2026-05-01 08:11 | 49.41709 | 9.55960 | 37369 ft | 432 kts | 12° |
| 2026-05-01 08:12 | 49.50547 | 9.58696 | 37372 ft | 432 kts | 12° |
| 2026-05-01 08:13 | 49.59403 | 9.61449 | 37370 ft | 433 kts | 11° |
| 2026-05-01 08:13 | 49.68262 | 9.64212 | 37377 ft | 433 kts | 11° |
| 2026-05-01 08:14 | 49.74176 | 9.66063 | 37380 ft | 433 kts | 11° |
| 2026-05-01 08:14 | 49.80084 | 9.67916 | 37385 ft | 434 kts | 11° |
| 2026-05-01 08:15 | 49.88954 | 9.70707 | 37392 ft | 433 kts | 11° |
| 2026-05-01 08:16 | 49.94832 | 9.72563 | 37389 ft | 433 kts | 11° |
| 2026-05-01 08:16 | 50.00737 | 9.74431 | 37391 ft | 433 kts | 11° |
| 2026-05-01 08:17 | 50.06643 | 9.76305 | 37396 ft | 433 kts | 11° |
| 2026-05-01 08:17 | 50.12544 | 9.78181 | 37400 ft | 432 kts | 11° |
| 2026-05-01 08:18 | 50.18437 | 9.80061 | 37399 ft | 432 kts | 11° |
| 2026-05-01 08:19 | 50.30185 | 9.83821 | 37407 ft | 432 kts | 11° |
| 2026-05-01 08:19 | 50.36081 | 9.85715 | 37410 ft | 432 kts | 12° |
| 2026-05-01 08:19 | 50.38959 | 9.87055 | 37407 ft | 433 kts | 23° |
| 2026-05-01 08:20 | 50.41613 | 9.89252 | 37426 ft | 433 kts | 32° |
| 2026-05-01 08:20 | 50.44023 | 9.92120 | 37411 ft | 436 kts | 43° |
| 2026-05-01 08:20 | 50.46130 | 9.95541 | 37429 ft | 436 kts | 45° |
| 2026-05-01 08:21 | 50.50223 | 10.02539 | 37430 ft | 437 kts | 46° |
| 2026-05-01 08:21 | 50.54370 | 10.09571 | 37421 ft | 439 kts | 45° |
| 2026-05-01 08:22 | 50.58548 | 10.16578 | 37423 ft | 439 kts | 45° |
| 2026-05-01 08:22 | 50.62735 | 10.23605 | 37425 ft | 440 kts | 45° |
| 2026-05-01 08:23 | 50.66026 | 10.29737 | 37419 ft | 443 kts | 56° |
| 2026-05-01 08:23 | 50.69469 | 10.39660 | 37435 ft | 444 kts | 60° |
| 2026-05-01 08:24 | 50.72362 | 10.48270 | 37428 ft | 444 kts | 60° |
| 2026-05-01 08:24 | 50.74799 | 10.55416 | 37415 ft | 444 kts | 59° |
| 2026-05-01 08:25 | 50.77735 | 10.63999 | 37439 ft | 443 kts | 59° |
| 2026-05-01 08:25 | 50.80658 | 10.72574 | 37442 ft | 443 kts | 60° |
| 2026-05-01 08:26 | 50.83564 | 10.81157 | 37454 ft | 442 kts | 60° |
| 2026-05-01 08:26 | 50.86454 | 10.89737 | 37474 ft | 441 kts | 60° |
| 2026-05-01 08:27 | 50.89330 | 10.98301 | 37456 ft | 439 kts | 60° |
| 2026-05-01 08:27 | 50.92172 | 11.06793 | 37456 ft | 438 kts | 60° |
| 2026-05-01 08:28 | 50.95015 | 11.15314 | 37450 ft | 436 kts | 60° |
| 2026-05-01 08:28 | 50.97848 | 11.23831 | 37454 ft | 436 kts | 60° |
| 2026-05-01 08:29 | 51.00673 | 11.32329 | 37444 ft | 435 kts | 60° |
| 2026-05-01 08:29 | 51.03490 | 11.40808 | 37443 ft | 434 kts | 60° |
| 2026-05-01 08:30 | 51.06305 | 11.49316 | 37445 ft | 434 kts | 60° |
| 2026-05-01 08:30 | 51.09102 | 11.57824 | 37450 ft | 434 kts | 60° |
| 2026-05-01 08:31 | 51.11895 | 11.66349 | 37447 ft | 434 kts | 60° |
| 2026-05-01 08:31 | 51.14680 | 11.74887 | 37448 ft | 435 kts | 60° |
| 2026-05-01 08:32 | 51.17460 | 11.83446 | 37446 ft | 435 kts | 60° |
| 2026-05-01 08:32 | 51.20244 | 11.92006 | 37446 ft | 435 kts | 59° |
| 2026-05-01 08:33 | 51.23882 | 11.99614 | 37470 ft | 431 kts | 45° |
| 2026-05-01 08:33 | 51.28028 | 12.06470 | 37453 ft | 432 kts | 45° |
| 2026-05-01 08:34 | 51.32225 | 12.13444 | 37450 ft | 433 kts | 45° |
| 2026-05-01 08:34 | 51.36350 | 12.20386 | 37455 ft | 433 kts | 45° |
| 2026-05-01 08:35 | 51.40451 | 12.27341 | 37423 ft | 420 kts | 45° |
| 2026-05-01 08:35 | 51.42417 | 12.30686 | 37438 ft | 404 kts | 45° |
| 2026-05-01 08:35 | 51.44308 | 12.33909 | 37426 ft | 391 kts | 45° |
| 2026-05-01 08:36 | 51.48022 | 12.40239 | 37466 ft | 392 kts | 45° |
| 2026-05-01 08:36 | 51.51795 | 12.46683 | 37464 ft | 400 kts | 45° |
| 2026-05-01 08:37 | 51.55640 | 12.53271 | 37441 ft | 408 kts | 45° |
| 2026-05-01 08:37 | 51.57587 | 12.56615 | 37134 ft | 410 kts | 45° |
| 2026-05-01 08:37 | 51.59536 | 12.59966 | 36442 ft | 412 kts | 46° |
| 2026-05-01 08:37 | 51.61508 | 12.63361 | 35615 ft | 419 kts | 46° |
| 2026-05-01 08:38 | 51.63507 | 12.66808 | 34844 ft | 424 kts | 46° |
| 2026-05-01 08:38 | 51.65534 | 12.70308 | 34034 ft | 428 kts | 46° |
| 2026-05-01 08:38 | 51.67573 | 12.73834 | 33172 ft | 432 kts | 46° |
| 2026-05-01 08:38 | 51.69630 | 12.77396 | 32311 ft | 436 kts | 46° |
| 2026-05-01 08:39 | 51.71663 | 12.80922 | 31333 ft | 433 kts | 47° |
| 2026-05-01 08:39 | 51.73715 | 12.84486 | 30083 ft | 436 kts | 47° |
| 2026-05-01 08:39 | 51.75787 | 12.88088 | 28605 ft | 439 kts | 47° |
| 2026-05-01 08:39 | 51.77827 | 12.91786 | 27109 ft | 442 kts | 52° |
| 2026-05-01 08:40 | 51.81125 | 13.00197 | 24511 ft | 440 kts | 59° |
| 2026-05-01 08:40 | 51.82672 | 13.04415 | 23480 ft | 432 kts | 59° |
| 2026-05-01 08:40 | 51.84192 | 13.08542 | 22409 ft | 423 kts | 59° |
| 2026-05-01 08:41 | 51.85694 | 13.12593 | 21336 ft | 415 kts | 59° |
| 2026-05-01 08:41 | 51.87174 | 13.16568 | 20272 ft | 409 kts | 59° |
| 2026-05-01 08:41 | 51.88633 | 13.20482 | 19242 ft | 403 kts | 59° |
| 2026-05-01 08:41 | 51.90072 | 13.24342 | 18191 ft | 397 kts | 59° |
| 2026-05-01 08:42 | 51.91473 | 13.28104 | 17744 ft | 380 kts | 58° |
| 2026-05-01 08:42 | 51.92809 | 13.31697 | 17583 ft | 361 kts | 59° |
| 2026-05-01 08:42 | 51.94066 | 13.35084 | 17445 ft | 340 kts | 59° |
| 2026-05-01 08:42 | 51.95247 | 13.38271 | 17409 ft | 320 kts | 59° |
| 2026-05-01 08:43 | 51.96361 | 13.41282 | 17398 ft | 302 kts | 59° |
| 2026-05-01 08:43 | 51.97412 | 13.44122 | 17404 ft | 285 kts | 59° |
| 2026-05-01 08:43 | 51.98389 | 13.46766 | 17401 ft | 269 kts | 59° |
| 2026-05-01 08:43 | 51.99317 | 13.49282 | 17392 ft | 251 kts | 59° |
| 2026-05-01 08:44 | 52.00182 | 13.51628 | 17406 ft | 235 kts | 59° |
| 2026-05-01 08:44 | 52.01014 | 13.53888 | 17196 ft | 231 kts | 59° |
| 2026-05-01 08:44 | 52.01940 | 13.56055 | 16392 ft | 246 kts | 49° |
| 2026-05-01 08:44 | 52.03263 | 13.58044 | 15251 ft | 273 kts | 40° |
| 2026-05-01 08:45 | 52.04837 | 13.59974 | 14131 ft | 295 kts | 39° |
| 2026-05-01 08:45 | 52.06547 | 13.61986 | 12951 ft | 311 kts | 38° |
| 2026-05-01 08:45 | 52.08318 | 13.64058 | 12184 ft | 313 kts | 38° |
| 2026-05-01 08:45 | 52.10050 | 13.66090 | 11928 ft | 299 kts | 38° |
| 2026-05-01 08:46 | 52.11689 | 13.68023 | 11702 ft | 285 kts | 38° |
| 2026-05-01 08:46 | 52.13269 | 13.69901 | 11385 ft | 276 kts | 38° |
| 2026-05-01 08:46 | 52.14796 | 13.71722 | 11081 ft | 268 kts | 38° |
| 2026-05-01 08:46 | 52.16281 | 13.73500 | 10752 ft | 262 kts | 38° |
| 2026-05-01 08:47 | 52.17739 | 13.75249 | 10346 ft | 259 kts | 38° |
| 2026-05-01 08:47 | 52.19191 | 13.76994 | 9847 ft | 259 kts | 38° |
| 2026-05-01 08:47 | 52.20637 | 13.78736 | 9430 ft | 258 kts | 38° |
| 2026-05-01 08:47 | 52.22083 | 13.80477 | 9105 ft | 258 kts | 38° |
| 2026-05-01 08:48 | 52.23522 | 13.82212 | 8810 ft | 257 kts | 38° |
| 2026-05-01 08:48 | 52.24963 | 13.83951 | 8517 ft | 256 kts | 38° |
| 2026-05-01 08:48 | 52.26394 | 13.85675 | 8235 ft | 256 kts | 38° |
| 2026-05-01 08:48 | 52.27825 | 13.87407 | 7954 ft | 256 kts | 38° |
| 2026-05-01 08:49 | 52.29251 | 13.89134 | 7673 ft | 255 kts | 38° |
| 2026-05-01 08:49 | 52.30656 | 13.90834 | 7398 ft | 254 kts | 38° |
| 2026-05-01 08:49 | 52.32088 | 13.92568 | 7123 ft | 253 kts | 38° |
| 2026-05-01 08:49 | 52.33499 | 13.94283 | 6848 ft | 252 kts | 38° |
| 2026-05-01 08:50 | 52.34885 | 13.95955 | 6678 ft | 248 kts | 37° |
| 2026-05-01 08:50 | 52.36252 | 13.97615 | 6540 ft | 241 kts | 38° |
| 2026-05-01 08:50 | 52.37701 | 13.98867 | 6405 ft | 236 kts | 13° |
| 2026-05-01 08:50 | 52.39308 | 13.98827 | 6330 ft | 229 kts | 351° |
| 2026-05-01 08:51 | 52.40794 | 13.97947 | 6229 ft | 225 kts | 338° |
| 2026-05-01 08:51 | 52.42213 | 13.96868 | 6075 ft | 227 kts | 338° |
| 2026-05-01 08:51 | 52.43659 | 13.95781 | 5789 ft | 230 kts | 338° |
| 2026-05-01 08:51 | 52.45167 | 13.94655 | 5310 ft | 241 kts | 336° |
| 2026-05-01 08:52 | 52.46479 | 13.92946 | 4940 ft | 248 kts | 302° |
| 2026-05-01 08:52 | 52.46864 | 13.90243 | 4677 ft | 249 kts | 263° |
| 2026-05-01 08:52 | 52.46259 | 13.87638 | 4468 ft | 241 kts | 243° |
| 2026-05-01 08:52 | 52.45544 | 13.85223 | 4337 ft | 234 kts | 247° |
| 2026-05-01 08:53 | 52.44921 | 13.82742 | 4035 ft | 236 kts | 249° |
| 2026-05-01 08:53 | 52.44326 | 13.80255 | 3728 ft | 231 kts | 249° |
| 2026-05-01 08:53 | 52.43747 | 13.77827 | 3407 ft | 226 kts | 250° |
| 2026-05-01 08:53 | 52.43178 | 13.75448 | 3102 ft | 223 kts | 251° |
| 2026-05-01 08:54 | 52.42604 | 13.73071 | 2795 ft | 225 kts | 250° |
| 2026-05-01 08:54 | 52.42072 | 13.70814 | 2516 ft | 204 kts | 252° |
| 2026-05-01 08:54 | 52.41599 | 13.68745 | 2278 ft | 181 kts | 250° |
| 2026-05-01 08:54 | 52.41146 | 13.66912 | 2011 ft | 165 kts | 250° |
| 2026-05-01 08:55 | 52.40722 | 13.65216 | 1785 ft | 160 kts | 250° |
| 2026-05-01 08:55 | 52.40333 | 13.63547 | 1584 ft | 155 kts | 251° |
| 2026-05-01 08:55 | 52.39949 | 13.61905 | 1380 ft | 154 kts | 251° |
| 2026-05-01 08:55 | 52.39559 | 13.60259 | 1174 ft | 155 kts | 250° |
| 2026-05-01 08:56 | 52.39169 | 13.58618 | 960 ft | 154 kts | 250° |
| 2026-05-01 08:56 | 52.38780 | 13.56989 | 772 ft | 154 kts | 251° |
| 2026-05-01 08:56 | 52.38397 | 13.55341 | 576 ft | 155 kts | 250° |
| 2026-05-01 08:56 | 52.37998 | 13.53709 | 334 ft | 152 kts | 252° |
| 2026-05-01 08:57 | 52.37629 | 13.52125 | 167 ft | 145 kts | 249° |
| 2026-05-01 08:57 | 52.37302 | 13.50751 | 154 ft | 110 kts | 249° |
| 2026-05-01 08:57 | 52.37102 | 13.49906 | 154 ft | 39 kts | 249° |
| 2026-05-01 08:57 | 52.37029 | 13.49690 | 154 ft | 14 kts | 226° |
| 2026-05-01 08:58 | 52.36959 | 13.49593 | 154 ft | 13 kts | 220° |
| 2026-05-01 08:58 | 52.36889 | 13.49502 | 153 ft | 13 kts | 218° |
| 2026-05-01 08:58 | 52.36821 | 13.49415 | 153 ft | 12 kts | 217° |
| 2026-05-01 08:58 | 52.36746 | 13.49357 | 153 ft | 12 kts | 180° |
| 2026-05-01 08:59 | 52.36674 | 13.49409 | 153 ft | 12 kts | 123° |
| 2026-05-01 08:59 | 52.36681 | 13.49535 | 153 ft | 11 kts | 69° |
| 2026-05-01 08:59 | 52.36710 | 13.49654 | 153 ft | 11 kts | 68° |
| 2026-05-01 08:59 | 52.36737 | 13.49770 | 154 ft | 11 kts | 68° |
| 2026-05-01 09:00 | 52.36764 | 13.49883 | 154 ft | 10 kts | 69° |
| 2026-05-01 09:00 | 52.36771 | 13.50013 | 154 ft | 16 kts | 123° |
| 2026-05-01 09:00 | 52.36738 | 13.50180 | 154 ft | 17 kts | 71° |
| 2026-05-01 09:00 | 52.36772 | 13.50323 | 154 ft | 8 kts | 68° |
| 2026-05-01 09:01 | 52.36787 | 13.50406 | 154 ft | 8 kts | 104° |
| 2026-05-01 09:01 | 52.36762 | 13.50485 | 154 ft | 8 kts | 129° |
| 2026-05-01 09:01 | 52.36734 | 13.50508 | 154 ft | 0 kts | 159° |